Arrival - Weather - Departure
Ostend Airport (EBOS - OST)
This page refreshes every 5 minutes.
Contact New Style NL | EN  Best Resolution: 1280x1024

Page last updated at 10:34:11
WEER EBOS TEST PAGE WEER
The report was made at 08:20 UTC (Now: 08:34:12 UTC)
The wind blows with a force of 33 km/h and is from the southwest
The sight is 9999 meter Runway 26 in use
The temperature is 19 °C The dew point is 15 °C
The humidity is 78 %
The air pressure is 1014 HPa
The weather is now few clouds at 457 meter altitude
The next two hours there is no significant change
2016/08/28 08:20 EBOS 280820Z 25018KT 9999 FEW015 19/15 Q1014 NOSIG
METAR EBOS TAF EBOS Info METAR
© Bert Sanders

 
Interesting websites about EBOS
EBOS-Spotting
REPLO
Website airport
Other interesting websites
Spottinggroup RS06
Android app on Google Play